マヘ島 の空港の天気 - METARとTAF

セーシェル国際空港 ( FSIA / SEZ ) - セーシェル マヘ島
飛行場実況気象(Metar)
観測時間01/23 09:00 SCT (01/23 05:00 UTC)
風向・風速北西 5m/s
視程10km以上
天気現象
全天の8割程度の雲 雲底高度 610m
気温28℃
湿度74%
気圧1012hPa
METARFSIA 230500Z 32010KT 9999 BKN020 28/23 Q1012 NOSIG
過去の天気等 Google飛行場航空写真 Wunderground天気予報

過去48時間のMETAR

飛行場予報(TAF)
発表時間: 1/23 09:02 SCT (1/23 05:02 UTC)
予報対象時間: 23日10時 SCT ~ 24日10時 SCT
風向・風速北西 5m/s
視程10km以上
全天の4割程度の雲 雲底高度 640m
TAF FSIA 230502Z 2306/2406 32010KT 9999 SCT021